sensor_id;sensor_type;location;lat;lon;timestamp;P1;durP1;ratioP1;P2;durP2;ratioP2
4521;SDS011;2273;48.464;11.926;2023-04-03T00:00:47;8.87;;;6.00;;
4521;SDS011;2273;48.464;11.926;2023-04-03T00:03:14;7.03;;;4.93;;
4521;SDS011;2273;48.464;11.926;2023-04-03T00:05:40;22.83;;;5.77;;
4521;SDS011;2273;48.464;11.926;2023-04-03T00:08:06;7.05;;;5.22;;
4521;SDS011;2273;48.464;11.926;2023-04-03T00:10:34;11.27;;;5.10;;
4521;SDS011;2273;48.464;11.926;2023-04-03T00:13:00;6.77;;;5.03;;
4521;SDS011;2273;48.464;11.926;2023-04-03T00:15:26;8.10;;;4.90;;
4521;SDS011;2273;48.464;11.926;2023-04-03T00:17:52;8.50;;;5.30;;
4521;SDS011;2273;48.464;11.926;2023-04-03T00:20:17;6.60;;;4.87;;
4521;SDS011;2273;48.464;11.926;2023-04-03T00:22:43;6.00;;;4.97;;
4521;SDS011;2273;48.464;11.926;2023-04-03T00:25:09;6.53;;;4.90;;
4521;SDS011;2273;48.464;11.926;2023-04-03T00:27:36;6.80;;;5.00;;
4521;SDS011;2273;48.464;11.926;2023-04-03T00:30:05;8.05;;;5.00;;
4521;SDS011;2273;48.464;11.926;2023-04-03T00:32:32;9.85;;;5.57;;
4521;SDS011;2273;48.464;11.926;2023-04-03T00:34:58;9.23;;;4.67;;
4521;SDS011;2273;48.464;11.926;2023-04-03T00:37:23;5.83;;;4.70;;
4521;SDS011;2273;48.464;11.926;2023-04-03T00:39:49;7.47;;;4.90;;
4521;SDS011;2273;48.464;11.926;2023-04-03T00:42:14;6.27;;;4.80;;
4521;SDS011;2273;48.464;11.926;2023-04-03T00:47:06;5.63;;;4.43;;
4521;SDS011;2273;48.464;11.926;2023-04-03T00:49:33;7.40;;;5.30;;
4521;SDS011;2273;48.464;11.926;2023-04-03T00:52:00;6.18;;;4.78;;
4521;SDS011;2273;48.464;11.926;2023-04-03T00:54:25;6.10;;;4.70;;
4521;SDS011;2273;48.464;11.926;2023-04-03T00:56:51;7.03;;;5.75;;
4521;SDS011;2273;48.464;11.926;2023-04-03T00:59:20;6.10;;;4.53;;
4521;SDS011;2273;48.464;11.926;2023-04-03T01:01:50;5.33;;;4.20;;
4521;SDS011;2273;48.464;11.926;2023-04-03T01:04:33;5.10;;;4.40;;
4521;SDS011;2273;48.464;11.926;2023-04-03T01:07:03;6.95;;;4.38;;
4521;SDS011;2273;48.464;11.926;2023-04-03T01:09:31;6.35;;;5.07;;
4521;SDS011;2273;48.464;11.926;2023-04-03T01:14:42;5.70;;;4.28;;
4521;SDS011;2273;48.464;11.926;2023-04-03T01:20:03;6.73;;;4.17;;
4521;SDS011;2273;48.464;11.926;2023-04-03T01:22:59;6.87;;;4.63;;
4521;SDS011;2273;48.464;11.926;2023-04-03T01:25:37;4.93;;;4.25;;
4521;SDS011;2273;48.464;11.926;2023-04-03T01:28:04;6.90;;;4.25;;
4521;SDS011;2273;48.464;11.926;2023-04-03T01:30:32;6.60;;;4.55;;
4521;SDS011;2273;48.464;11.926;2023-04-03T01:32:59;6.60;;;4.30;;
4521;SDS011;2273;48.464;11.926;2023-04-03T01:35:25;7.30;;;4.77;;
4521;SDS011;2273;48.464;11.926;2023-04-03T01:37:51;5.40;;;4.23;;
4521;SDS011;2273;48.464;11.926;2023-04-03T01:40:16;7.00;;;4.60;;
4521;SDS011;2273;48.464;11.926;2023-04-03T01:42:43;7.55;;;4.57;;
4521;SDS011;2273;48.464;11.926;2023-04-03T01:45:08;5.93;;;4.30;;
4521;SDS011;2273;48.464;11.926;2023-04-03T01:47:34;6.80;;;4.90;;
4521;SDS011;2273;48.464;11.926;2023-04-03T01:50:00;12.43;;;4.47;;
4521;SDS011;2273;48.464;11.926;2023-04-03T01:52:29;6.37;;;4.33;;
4521;SDS011;2273;48.464;11.926;2023-04-03T01:54:55;5.68;;;4.20;;
4521;SDS011;2273;48.464;11.926;2023-04-03T01:57:21;7.27;;;4.70;;
4521;SDS011;2273;48.464;11.926;2023-04-03T01:59:46;6.37;;;4.53;;
4521;SDS011;2273;48.464;11.926;2023-04-03T02:02:11;6.30;;;4.10;;
4521;SDS011;2273;48.464;11.926;2023-04-03T02:04:39;5.82;;;4.32;;
4521;SDS011;2273;48.464;11.926;2023-04-03T02:07:05;5.70;;;4.40;;
4521;SDS011;2273;48.464;11.926;2023-04-03T02:09:32;6.55;;;4.70;;
4521;SDS011;2273;48.464;11.926;2023-04-03T02:11:58;7.23;;;4.23;;
4521;SDS011;2273;48.464;11.926;2023-04-03T02:14:23;7.63;;;4.80;;
4521;SDS011;2273;48.464;11.926;2023-04-03T02:16:49;6.40;;;4.30;;
4521;SDS011;2273;48.464;11.926;2023-04-03T02:19:15;6.10;;;4.40;;
4521;SDS011;2273;48.464;11.926;2023-04-03T02:21:41;9.00;;;5.75;;
4521;SDS011;2273;48.464;11.926;2023-04-03T02:24:06;6.27;;;4.50;;
4521;SDS011;2273;48.464;11.926;2023-04-03T02:26:33;6.28;;;4.35;;
4521;SDS011;2273;48.464;11.926;2023-04-03T02:28:58;5.83;;;4.20;;
4521;SDS011;2273;48.464;11.926;2023-04-03T02:31:24;8.40;;;4.50;;
4521;SDS011;2273;48.464;11.926;2023-04-03T02:33:49;10.10;;;4.67;;
4521;SDS011;2273;48.464;11.926;2023-04-03T02:36:16;6.85;;;4.80;;
4521;SDS011;2273;48.464;11.926;2023-04-03T02:38:46;6.90;;;5.10;;
4521;SDS011;2273;48.464;11.926;2023-04-03T02:41:13;6.90;;;4.65;;
4521;SDS011;2273;48.464;11.926;2023-04-03T02:43:39;5.67;;;4.70;;
4521;SDS011;2273;48.464;11.926;2023-04-03T02:46:05;8.38;;;4.80;;
4521;SDS011;2273;48.464;11.926;2023-04-03T02:48:30;5.93;;;4.60;;
4521;SDS011;2273;48.464;11.926;2023-04-03T02:50:56;6.30;;;4.63;;
4521;SDS011;2273;48.464;11.926;2023-04-03T02:53:22;6.57;;;5.07;;
4521;SDS011;2273;48.464;11.926;2023-04-03T02:55:49;8.93;;;4.80;;
4521;SDS011;2273;48.464;11.926;2023-04-03T02:58:14;5.77;;;4.70;;
4521;SDS011;2273;48.464;11.926;2023-04-03T03:00:40;7.00;;;5.17;;
4521;SDS011;2273;48.464;11.926;2023-04-03T03:03:05;7.60;;;5.73;;
4521;SDS011;2273;48.464;11.926;2023-04-03T03:05:31;7.13;;;5.17;;
4521;SDS011;2273;48.464;11.926;2023-04-03T03:07:56;6.80;;;5.40;;
4521;SDS011;2273;48.464;11.926;2023-04-03T03:10:22;8.53;;;5.13;;
4521;SDS011;2273;48.464;11.926;2023-04-03T03:12:47;8.98;;;6.03;;
4521;SDS011;2273;48.464;11.926;2023-04-03T03:15:13;7.73;;;5.40;;
4521;SDS011;2273;48.464;11.926;2023-04-03T03:17:40;7.75;;;5.00;;
4521;SDS011;2273;48.464;11.926;2023-04-03T03:20:06;8.43;;;5.10;;
4521;SDS011;2273;48.464;11.926;2023-04-03T03:22:33;9.30;;;4.80;;
4521;SDS011;2273;48.464;11.926;2023-04-03T03:24:59;7.75;;;5.30;;
4521;SDS011;2273;48.464;11.926;2023-04-03T03:27:25;9.23;;;5.60;;
4521;SDS011;2273;48.464;11.926;2023-04-03T03:29:51;7.57;;;5.27;;
4521;SDS011;2273;48.464;11.926;2023-04-03T03:32:16;9.20;;;5.10;;
4521;SDS011;2273;48.464;11.926;2023-04-03T03:34:42;7.67;;;5.30;;
4521;SDS011;2273;48.464;11.926;2023-04-03T03:37:07;7.50;;;5.13;;
4521;SDS011;2273;48.464;11.926;2023-04-03T03:39:33;6.87;;;5.30;;
4521;SDS011;2273;48.464;11.926;2023-04-03T03:41:58;6.23;;;5.00;;
4521;SDS011;2273;48.464;11.926;2023-04-03T03:44:23;6.87;;;4.73;;
4521;SDS011;2273;48.464;11.926;2023-04-03T03:46:49;8.13;;;5.80;;
4521;SDS011;2273;48.464;11.926;2023-04-03T03:49:15;7.77;;;5.43;;
4521;SDS011;2273;48.464;11.926;2023-04-03T03:51:41;8.80;;;5.53;;
4521;SDS011;2273;48.464;11.926;2023-04-03T03:54:06;10.33;;;5.87;;
4521;SDS011;2273;48.464;11.926;2023-04-03T03:56:33;8.77;;;6.25;;
4521;SDS011;2273;48.464;11.926;2023-04-03T03:58:59;8.80;;;6.03;;
4521;SDS011;2273;48.464;11.926;2023-04-03T04:01:24;9.77;;;6.70;;
4521;SDS011;2273;48.464;11.926;2023-04-03T04:03:50;7.70;;;5.70;;
4521;SDS011;2273;48.464;11.926;2023-04-03T04:06:20;9.13;;;5.43;;
4521;SDS011;2273;48.464;11.926;2023-04-03T04:08:46;8.10;;;5.95;;
4521;SDS011;2273;48.464;11.926;2023-04-03T04:11:13;8.40;;;5.23;;
4521;SDS011;2273;48.464;11.926;2023-04-03T04:13:40;9.20;;;5.57;;
4521;SDS011;2273;48.464;11.926;2023-04-03T04:16:07;8.73;;;6.20;;
4521;SDS011;2273;48.464;11.926;2023-04-03T04:18:33;7.17;;;6.10;;
4521;SDS011;2273;48.464;11.926;2023-04-03T04:20:58;10.07;;;6.20;;
4521;SDS011;2273;48.464;11.926;2023-04-03T04:23:24;6.40;;;5.00;;
4521;SDS011;2273;48.464;11.926;2023-04-03T04:25:50;7.73;;;5.53;;
4521;SDS011;2273;48.464;11.926;2023-04-03T04:28:17;7.90;;;5.70;;
4521;SDS011;2273;48.464;11.926;2023-04-03T04:30:44;7.28;;;5.32;;
4521;SDS011;2273;48.464;11.926;2023-04-03T04:33:11;9.50;;;5.85;;
4521;SDS011;2273;48.464;11.926;2023-04-03T04:35:41;9.52;;;5.72;;
4521;SDS011;2273;48.464;11.926;2023-04-03T04:38:07;8.45;;;5.78;;
4521;SDS011;2273;48.464;11.926;2023-04-03T04:40:33;7.43;;;5.30;;
4521;SDS011;2273;48.464;11.926;2023-04-03T04:42:59;10.10;;;6.03;;
4521;SDS011;2273;48.464;11.926;2023-04-03T04:45:25;11.53;;;5.90;;
4521;SDS011;2273;48.464;11.926;2023-04-03T04:47:51;7.77;;;5.77;;
4521;SDS011;2273;48.464;11.926;2023-04-03T04:50:18;9.53;;;6.50;;
4521;SDS011;2273;48.464;11.926;2023-04-03T04:52:44;12.77;;;6.53;;
4521;SDS011;2273;48.464;11.926;2023-04-03T04:55:09;8.37;;;5.77;;
4521;SDS011;2273;48.464;11.926;2023-04-03T04:57:35;8.97;;;6.20;;
4521;SDS011;2273;48.464;11.926;2023-04-03T05:00:02;8.63;;;6.00;;
4521;SDS011;2273;48.464;11.926;2023-04-03T05:02:29;9.00;;;6.30;;
4521;SDS011;2273;48.464;11.926;2023-04-03T05:04:54;11.33;;;6.40;;
4521;SDS011;2273;48.464;11.926;2023-04-03T05:07:25;10.23;;;6.93;;
4521;SDS011;2273;48.464;11.926;2023-04-03T05:09:50;8.83;;;5.90;;
4521;SDS011;2273;48.464;11.926;2023-04-03T05:12:16;9.83;;;6.87;;
4521;SDS011;2273;48.464;11.926;2023-04-03T05:14:48;9.85;;;7.30;;
4521;SDS011;2273;48.464;11.926;2023-04-03T05:17:15;12.25;;;7.35;;
4521;SDS011;2273;48.464;11.926;2023-04-03T05:19:45;13.35;;;7.40;;
4521;SDS011;2273;48.464;11.926;2023-04-03T05:22:11;10.00;;;7.40;;
4521;SDS011;2273;48.464;11.926;2023-04-03T05:24:37;11.00;;;6.87;;
4521;SDS011;2273;48.464;11.926;2023-04-03T05:27:03;11.65;;;8.00;;
4521;SDS011;2273;48.464;11.926;2023-04-03T05:29:31;10.93;;;7.63;;
4521;SDS011;2273;48.464;11.926;2023-04-03T05:31:59;9.90;;;7.40;;
4521;SDS011;2273;48.464;11.926;2023-04-03T05:34:25;13.38;;;8.23;;
4521;SDS011;2273;48.464;11.926;2023-04-03T05:36:53;10.38;;;6.93;;
4521;SDS011;2273;48.464;11.926;2023-04-03T05:39:18;11.00;;;7.80;;
4521;SDS011;2273;48.464;11.926;2023-04-03T05:41:46;11.55;;;7.75;;
4521;SDS011;2273;48.464;11.926;2023-04-03T05:44:11;12.33;;;8.00;;
4521;SDS011;2273;48.464;11.926;2023-04-03T05:46:37;14.17;;;8.40;;
4521;SDS011;2273;48.464;11.926;2023-04-03T05:49:05;11.80;;;7.75;;
4521;SDS011;2273;48.464;11.926;2023-04-03T05:51:35;11.75;;;8.02;;
4521;SDS011;2273;48.464;11.926;2023-04-03T05:54:11;14.50;;;7.43;;
4521;SDS011;2273;48.464;11.926;2023-04-03T05:56:39;13.23;;;8.35;;
4521;SDS011;2273;48.464;11.926;2023-04-03T05:59:05;12.93;;;8.50;;
4521;SDS011;2273;48.464;11.926;2023-04-03T06:01:30;12.00;;;7.73;;
4521;SDS011;2273;48.464;11.926;2023-04-03T06:03:56;14.93;;;7.80;;
4521;SDS011;2273;48.464;11.926;2023-04-03T06:06:23;10.98;;;7.55;;
4521;SDS011;2273;48.464;11.926;2023-04-03T06:08:49;14.27;;;8.30;;
4521;SDS011;2273;48.464;11.926;2023-04-03T06:11:15;11.97;;;8.30;;
4521;SDS011;2273;48.464;11.926;2023-04-03T06:13:40;13.50;;;7.90;;
4521;SDS011;2273;48.464;11.926;2023-04-03T06:16:06;11.07;;;7.50;;
4521;SDS011;2273;48.464;11.926;2023-04-03T06:18:31;12.50;;;7.93;;
4521;SDS011;2273;48.464;11.926;2023-04-03T06:20:57;12.80;;;7.83;;
4521;SDS011;2273;48.464;11.926;2023-04-03T06:23:23;14.60;;;7.80;;
4521;SDS011;2273;48.464;11.926;2023-04-03T06:25:48;9.70;;;7.50;;
4521;SDS011;2273;48.464;11.926;2023-04-03T06:28:14;16.97;;;7.60;;
4521;SDS011;2273;48.464;11.926;2023-04-03T06:30:40;12.40;;;7.87;;
4521;SDS011;2273;48.464;11.926;2023-04-03T06:33:05;12.60;;;7.97;;
4521;SDS011;2273;48.464;11.926;2023-04-03T06:35:31;10.70;;;7.70;;
4521;SDS011;2273;48.464;11.926;2023-04-03T06:37:56;17.13;;;8.87;;
4521;SDS011;2273;48.464;11.926;2023-04-03T06:40:23;11.83;;;8.47;;
4521;SDS011;2273;48.464;11.926;2023-04-03T06:42:50;11.77;;;7.70;;
4521;SDS011;2273;48.464;11.926;2023-04-03T06:45:17;12.98;;;8.00;;
4521;SDS011;2273;48.464;11.926;2023-04-03T06:47:43;10.40;;;7.57;;
4521;SDS011;2273;48.464;11.926;2023-04-03T06:50:09;13.30;;;7.70;;
4521;SDS011;2273;48.464;11.926;2023-04-03T06:52:39;12.57;;;8.30;;
4521;SDS011;2273;48.464;11.926;2023-04-03T06:55:05;11.10;;;7.13;;
4521;SDS011;2273;48.464;11.926;2023-04-03T06:57:30;14.73;;;7.43;;
4521;SDS011;2273;48.464;11.926;2023-04-03T06:59:56;9.23;;;7.00;;
4521;SDS011;2273;48.464;11.926;2023-04-03T07:02:21;13.03;;;7.30;;
4521;SDS011;2273;48.464;11.926;2023-04-03T07:04:47;12.80;;;7.70;;
4521;SDS011;2273;48.464;11.926;2023-04-03T07:07:12;9.63;;;6.87;;
4521;SDS011;2273;48.464;11.926;2023-04-03T07:09:38;12.40;;;7.63;;
4521;SDS011;2273;48.464;11.926;2023-04-03T07:12:03;10.40;;;7.20;;
4521;SDS011;2273;48.464;11.926;2023-04-03T07:14:29;10.50;;;6.63;;
4521;SDS011;2273;48.464;11.926;2023-04-03T07:16:54;8.43;;;6.50;;
4521;SDS011;2273;48.464;11.926;2023-04-03T07:19:20;15.83;;;7.87;;
4521;SDS011;2273;48.464;11.926;2023-04-03T07:21:46;12.27;;;7.00;;
4521;SDS011;2273;48.464;11.926;2023-04-03T07:24:12;11.63;;;7.10;;
4521;SDS011;2273;48.464;11.926;2023-04-03T07:26:37;10.63;;;6.70;;
4521;SDS011;2273;48.464;11.926;2023-04-03T07:29:03;11.13;;;6.93;;
4521;SDS011;2273;48.464;11.926;2023-04-03T07:31:28;12.60;;;7.10;;
4521;SDS011;2273;48.464;11.926;2023-04-03T07:33:54;9.67;;;6.63;;
4521;SDS011;2273;48.464;11.926;2023-04-03T07:36:20;15.83;;;7.80;;
4521;SDS011;2273;48.464;11.926;2023-04-03T07:38:46;10.52;;;7.32;;
4521;SDS011;2273;48.464;11.926;2023-04-03T07:41:15;12.67;;;7.87;;
4521;SDS011;2273;48.464;11.926;2023-04-03T07:43:43;13.00;;;7.60;;
4521;SDS011;2273;48.464;11.926;2023-04-03T07:46:08;10.77;;;7.30;;
4521;SDS011;2273;48.464;11.926;2023-04-03T07:48:34;9.10;;;6.90;;
4521;SDS011;2273;48.464;11.926;2023-04-03T07:51:00;11.10;;;7.50;;
4521;SDS011;2273;48.464;11.926;2023-04-03T07:53:27;17.40;;;6.73;;
4521;SDS011;2273;48.464;11.926;2023-04-03T07:55:52;14.63;;;7.60;;
4521;SDS011;2273;48.464;11.926;2023-04-03T07:58:20;10.93;;;6.60;;
4521;SDS011;2273;48.464;11.926;2023-04-03T08:00:46;11.40;;;7.03;;
4521;SDS011;2273;48.464;11.926;2023-04-03T08:03:12;11.73;;;7.23;;
4521;SDS011;2273;48.464;11.926;2023-04-03T08:05:39;7.70;;;6.40;;
4521;SDS011;2273;48.464;11.926;2023-04-03T08:08:06;12.83;;;6.40;;
4521;SDS011;2273;48.464;11.926;2023-04-03T08:10:32;13.23;;;8.30;;
4521;SDS011;2273;48.464;11.926;2023-04-03T08:12:58;10.50;;;6.87;;
4521;SDS011;2273;48.464;11.926;2023-04-03T08:15:24;9.73;;;6.60;;
4521;SDS011;2273;48.464;11.926;2023-04-03T08:17:49;10.03;;;6.77;;
4521;SDS011;2273;48.464;11.926;2023-04-03T08:20:15;8.40;;;6.67;;
4521;SDS011;2273;48.464;11.926;2023-04-03T08:22:41;8.23;;;6.50;;
4521;SDS011;2273;48.464;11.926;2023-04-03T08:25:07;10.37;;;6.83;;
4521;SDS011;2273;48.464;11.926;2023-04-03T08:27:32;11.53;;;6.60;;
4521;SDS011;2273;48.464;11.926;2023-04-03T08:29:58;11.70;;;6.97;;
4521;SDS011;2273;48.464;11.926;2023-04-03T08:32:23;9.63;;;6.40;;
4521;SDS011;2273;48.464;11.926;2023-04-03T08:34:49;10.60;;;6.20;;
4521;SDS011;2273;48.464;11.926;2023-04-03T08:37:15;11.47;;;6.40;;
4521;SDS011;2273;48.464;11.926;2023-04-03T08:39:44;8.80;;;6.10;;
4521;SDS011;2273;48.464;11.926;2023-04-03T08:42:21;9.27;;;5.97;;
4521;SDS011;2273;48.464;11.926;2023-04-03T08:47:38;8.27;;;5.23;;
4521;SDS011;2273;48.464;11.926;2023-04-03T08:50:12;6.53;;;4.50;;
4521;SDS011;2273;48.464;11.926;2023-04-03T08:52:41;6.77;;;4.20;;
4521;SDS011;2273;48.464;11.926;2023-04-03T08:55:27;5.33;;;4.70;;
4521;SDS011;2273;48.464;11.926;2023-04-03T08:58:01;9.07;;;4.57;;
4521;SDS011;2273;48.464;11.926;2023-04-03T09:00:28;7.80;;;5.00;;
4521;SDS011;2273;48.464;11.926;2023-04-03T09:02:57;4.80;;;3.77;;
4521;SDS011;2273;48.464;11.926;2023-04-03T09:05:35;6.33;;;4.00;;
4521;SDS011;2273;48.464;11.926;2023-04-03T09:08:21;6.80;;;3.63;;
4521;SDS011;2273;48.464;11.926;2023-04-03T09:10:49;5.23;;;3.63;;
4521;SDS011;2273;48.464;11.926;2023-04-03T09:15:46;5.50;;;3.57;;
4521;SDS011;2273;48.464;11.926;2023-04-03T09:18:16;5.97;;;3.60;;
4521;SDS011;2273;48.464;11.926;2023-04-03T09:20:46;4.67;;;3.53;;
4521;SDS011;2273;48.464;11.926;2023-04-03T09:23:28;5.50;;;3.67;;
4521;SDS011;2273;48.464;11.926;2023-04-03T09:26:05;7.20;;;3.50;;
4521;SDS011;2273;48.464;11.926;2023-04-03T09:28:34;6.80;;;4.37;;
4521;SDS011;2273;48.464;11.926;2023-04-03T09:31:05;6.40;;;3.93;;
4521;SDS011;2273;48.464;11.926;2023-04-03T09:33:49;6.77;;;4.20;;
4521;SDS011;2273;48.464;11.926;2023-04-03T09:36:36;5.90;;;3.83;;
4521;SDS011;2273;48.464;11.926;2023-04-03T09:39:15;12.63;;;6.53;;
4521;SDS011;2273;48.464;11.926;2023-04-03T09:41:41;8.10;;;5.07;;
4521;SDS011;2273;48.464;11.926;2023-04-03T09:44:20;6.40;;;4.33;;
4521;SDS011;2273;48.464;11.926;2023-04-03T09:46:47;6.50;;;4.23;;
4521;SDS011;2273;48.464;11.926;2023-04-03T09:49:12;5.67;;;3.50;;
4521;SDS011;2273;48.464;11.926;2023-04-03T09:51:38;4.93;;;3.30;;
4521;SDS011;2273;48.464;11.926;2023-04-03T09:54:49;7.30;;;3.77;;
4521;SDS011;2273;48.464;11.926;2023-04-03T09:57:07;5.87;;;2.83;;
4521;SDS011;2273;48.464;11.926;2023-04-03T09:59:35;4.63;;;3.10;;
4521;SDS011;2273;48.464;11.926;2023-04-03T10:02:03;4.80;;;2.80;;
4521;SDS011;2273;48.464;11.926;2023-04-03T10:04:49;2.97;;;2.57;;
4521;SDS011;2273;48.464;11.926;2023-04-03T10:07:34;3.43;;;2.80;;
4521;SDS011;2273;48.464;11.926;2023-04-03T10:10:22;7.00;;;2.97;;
4521;SDS011;2273;48.464;11.926;2023-04-03T10:15:36;5.23;;;2.73;;
4521;SDS011;2273;48.464;11.926;2023-04-03T10:18:08;6.43;;;3.33;;
4521;SDS011;2273;48.464;11.926;2023-04-03T10:21:02;3.03;;;2.40;;
4521;SDS011;2273;48.464;11.926;2023-04-03T10:23:45;4.17;;;2.93;;
4521;SDS011;2273;48.464;11.926;2023-04-03T10:32:11;5.57;;;2.80;;
4521;SDS011;2273;48.464;11.926;2023-04-03T10:34:42;4.20;;;2.97;;
4521;SDS011;2273;48.464;11.926;2023-04-03T10:37:23;5.57;;;3.20;;
4521;SDS011;2273;48.464;11.926;2023-04-03T10:39:59;5.37;;;3.30;;
4521;SDS011;2273;48.464;11.926;2023-04-03T10:42:29;4.63;;;3.00;;
4521;SDS011;2273;48.464;11.926;2023-04-03T10:45:31;17.10;;;3.57;;
4521;SDS011;2273;48.464;11.926;2023-04-03T10:51:00;5.93;;;3.47;;
4521;SDS011;2273;48.464;11.926;2023-04-03T10:53:36;4.17;;;3.00;;
4521;SDS011;2273;48.464;11.926;2023-04-03T10:58:44;4.83;;;3.47;;
4521;SDS011;2273;48.464;11.926;2023-04-03T11:01:44;4.50;;;3.03;;
4521;SDS011;2273;48.464;11.926;2023-04-03T11:04:04;8.43;;;3.33;;
4521;SDS011;2273;48.464;11.926;2023-04-03T11:07:17;5.60;;;4.10;;
4521;SDS011;2273;48.464;11.926;2023-04-03T11:09:28;6.23;;;3.60;;
4521;SDS011;2273;48.464;11.926;2023-04-03T11:12:32;7.10;;;3.87;;
4521;SDS011;2273;48.464;11.926;2023-04-03T11:14:50;10.03;;;3.37;;
4521;SDS011;2273;48.464;11.926;2023-04-03T11:22:32;4.00;;;2.87;;
4521;SDS011;2273;48.464;11.926;2023-04-03T11:27:30;7.40;;;3.00;;
4521;SDS011;2273;48.464;11.926;2023-04-03T11:32:58;4.37;;;3.10;;
4521;SDS011;2273;48.464;11.926;2023-04-03T11:35:30;5.03;;;3.57;;
4521;SDS011;2273;48.464;11.926;2023-04-03T11:37:56;4.83;;;3.03;;
4521;SDS011;2273;48.464;11.926;2023-04-03T11:40:24;5.47;;;3.33;;
4521;SDS011;2273;48.464;11.926;2023-04-03T11:42:55;6.10;;;3.70;;
4521;SDS011;2273;48.464;11.926;2023-04-03T11:50:44;3.63;;;3.20;;
4521;SDS011;2273;48.464;11.926;2023-04-03T11:55:42;5.73;;;3.10;;
4521;SDS011;2273;48.464;11.926;2023-04-03T12:13:36;18.23;;;6.97;;
4521;SDS011;2273;48.464;11.926;2023-04-03T12:16:03;4.73;;;2.73;;
4521;SDS011;2273;48.464;11.926;2023-04-03T12:21:20;4.00;;;3.03;;
4521;SDS011;2273;48.464;11.926;2023-04-03T12:26:38;4.87;;;3.03;;
4521;SDS011;2273;48.464;11.926;2023-04-03T12:29:14;3.47;;;2.73;;
4521;SDS011;2273;48.464;11.926;2023-04-03T12:31:58;5.60;;;3.57;;
4521;SDS011;2273;48.464;11.926;2023-04-03T12:40:43;4.10;;;3.10;;
4521;SDS011;2273;48.464;11.926;2023-04-03T12:48:20;5.17;;;3.67;;
4521;SDS011;2273;48.464;11.926;2023-04-03T12:50:50;4.80;;;2.80;;
4521;SDS011;2273;48.464;11.926;2023-04-03T12:55:44;3.87;;;3.10;;
4521;SDS011;2273;48.464;11.926;2023-04-03T12:58:19;5.77;;;3.57;;
4521;SDS011;2273;48.464;11.926;2023-04-03T13:00:47;4.40;;;3.10;;
4521;SDS011;2273;48.464;11.926;2023-04-03T13:03:27;5.80;;;3.33;;
4521;SDS011;2273;48.464;11.926;2023-04-03T13:05:54;6.30;;;3.40;;
4521;SDS011;2273;48.464;11.926;2023-04-03T13:08:21;5.33;;;3.50;;
4521;SDS011;2273;48.464;11.926;2023-04-03T13:10:51;3.33;;;2.60;;
4521;SDS011;2273;48.464;11.926;2023-04-03T13:13:23;8.07;;;3.67;;
4521;SDS011;2273;48.464;11.926;2023-04-03T13:15:49;4.10;;;3.30;;
4521;SDS011;2273;48.464;11.926;2023-04-03T13:18:22;5.17;;;3.20;;
4521;SDS011;2273;48.464;11.926;2023-04-03T13:20:49;5.13;;;3.27;;
4521;SDS011;2273;48.464;11.926;2023-04-03T13:23:14;4.90;;;2.70;;
4521;SDS011;2273;48.464;11.926;2023-04-03T13:25:43;4.67;;;3.17;;
4521;SDS011;2273;48.464;11.926;2023-04-03T13:28:10;4.73;;;3.10;;
4521;SDS011;2273;48.464;11.926;2023-04-03T13:30:38;5.70;;;2.80;;
4521;SDS011;2273;48.464;11.926;2023-04-03T13:33:17;6.07;;;3.20;;
4521;SDS011;2273;48.464;11.926;2023-04-03T13:35:45;3.70;;;2.97;;
4521;SDS011;2273;48.464;11.926;2023-04-03T13:40:49;7.57;;;3.73;;
4521;SDS011;2273;48.464;11.926;2023-04-03T13:43:18;5.50;;;3.13;;
4521;SDS011;2273;48.464;11.926;2023-04-03T13:45:58;5.30;;;3.50;;
4521;SDS011;2273;48.464;11.926;2023-04-03T13:48:24;4.57;;;3.00;;
4521;SDS011;2273;48.464;11.926;2023-04-03T13:50:53;3.73;;;2.80;;
4521;SDS011;2273;48.464;11.926;2023-04-03T13:53:30;6.07;;;3.03;;
4521;SDS011;2273;48.464;11.926;2023-04-03T13:58:28;3.83;;;3.10;;
4521;SDS011;2273;48.464;11.926;2023-04-03T14:00:58;5.50;;;3.50;;
4521;SDS011;2273;48.464;11.926;2023-04-03T14:06:23;4.30;;;2.80;;
4521;SDS011;2273;48.464;11.926;2023-04-03T14:08:49;5.20;;;3.57;;
4521;SDS011;2273;48.464;11.926;2023-04-03T14:11:19;4.67;;;2.90;;
4521;SDS011;2273;48.464;11.926;2023-04-03T14:13:47;5.23;;;3.57;;
4521;SDS011;2273;48.464;11.926;2023-04-03T14:16:15;6.50;;;3.07;;
4521;SDS011;2273;48.464;11.926;2023-04-03T14:18:43;4.33;;;3.27;;
4521;SDS011;2273;48.464;11.926;2023-04-03T14:21:13;3.60;;;2.93;;
4521;SDS011;2273;48.464;11.926;2023-04-03T14:23:40;3.90;;;3.23;;
4521;SDS011;2273;48.464;11.926;2023-04-03T14:26:13;9.43;;;3.70;;
4521;SDS011;2273;48.464;11.926;2023-04-03T14:28:42;5.10;;;3.17;;
4521;SDS011;2273;48.464;11.926;2023-04-03T14:31:10;4.80;;;3.20;;
4521;SDS011;2273;48.464;11.926;2023-04-03T14:33:36;10.90;;;3.20;;
4521;SDS011;2273;48.464;11.926;2023-04-03T14:36:09;4.67;;;3.83;;
4521;SDS011;2273;48.464;11.926;2023-04-03T14:38:37;5.43;;;3.83;;
4521;SDS011;2273;48.464;11.926;2023-04-03T14:41:03;5.33;;;3.03;;
4521;SDS011;2273;48.464;11.926;2023-04-03T14:43:28;8.77;;;2.90;;
4521;SDS011;2273;48.464;11.926;2023-04-03T14:45:53;6.30;;;3.10;;
4521;SDS011;2273;48.464;11.926;2023-04-03T14:48:24;6.63;;;3.43;;
4521;SDS011;2273;48.464;11.926;2023-04-03T14:50:51;5.10;;;3.10;;
4521;SDS011;2273;48.464;11.926;2023-04-03T14:53:17;4.40;;;3.13;;
4521;SDS011;2273;48.464;11.926;2023-04-03T14:55:48;5.87;;;3.83;;
4521;SDS011;2273;48.464;11.926;2023-04-03T14:58:15;5.10;;;3.07;;
4521;SDS011;2273;48.464;11.926;2023-04-03T15:00:42;7.50;;;3.87;;
4521;SDS011;2273;48.464;11.926;2023-04-03T15:03:21;5.80;;;3.03;;
4521;SDS011;2273;48.464;11.926;2023-04-03T15:05:47;5.23;;;3.00;;
4521;SDS011;2273;48.464;11.926;2023-04-03T15:08:23;3.33;;;2.50;;
4521;SDS011;2273;48.464;11.926;2023-04-03T15:10:51;6.27;;;2.97;;
4521;SDS011;2273;48.464;11.926;2023-04-03T15:13:18;6.07;;;3.80;;
4521;SDS011;2273;48.464;11.926;2023-04-03T15:15:44;5.60;;;3.60;;
4521;SDS011;2273;48.464;11.926;2023-04-03T15:18:22;4.10;;;3.00;;
4521;SDS011;2273;48.464;11.926;2023-04-03T15:20:51;6.60;;;3.97;;
4521;SDS011;2273;48.464;11.926;2023-04-03T15:23:17;9.03;;;3.70;;
4521;SDS011;2273;48.464;11.926;2023-04-03T15:25:43;5.47;;;3.27;;
4521;SDS011;2273;48.464;11.926;2023-04-03T15:28:13;6.77;;;3.63;;
4521;SDS011;2273;48.464;11.926;2023-04-03T15:30:43;4.30;;;2.93;;
4521;SDS011;2273;48.464;11.926;2023-04-03T15:33:08;5.23;;;3.33;;
4521;SDS011;2273;48.464;11.926;2023-04-03T15:35:34;4.47;;;3.73;;
4521;SDS011;2273;48.464;11.926;2023-04-03T15:37:59;6.00;;;4.10;;
4521;SDS011;2273;48.464;11.926;2023-04-03T15:40:25;6.90;;;4.20;;
4521;SDS011;2273;48.464;11.926;2023-04-03T15:42:50;6.33;;;4.07;;
4521;SDS011;2273;48.464;11.926;2023-04-03T15:45:16;5.40;;;3.20;;
4521;SDS011;2273;48.464;11.926;2023-04-03T15:47:41;5.03;;;3.40;;
4521;SDS011;2273;48.464;11.926;2023-04-03T15:50:07;5.47;;;3.30;;
4521;SDS011;2273;48.464;11.926;2023-04-03T15:52:33;6.33;;;3.57;;
4521;SDS011;2273;48.464;11.926;2023-04-03T15:55:00;6.00;;;3.43;;
4521;SDS011;2273;48.464;11.926;2023-04-03T15:57:26;5.43;;;3.47;;
4521;SDS011;2273;48.464;11.926;2023-04-03T15:59:52;4.50;;;3.07;;
4521;SDS011;2273;48.464;11.926;2023-04-03T16:02:17;3.93;;;3.40;;
4521;SDS011;2273;48.464;11.926;2023-04-03T16:04:43;8.90;;;3.60;;
4521;SDS011;2273;48.464;11.926;2023-04-03T16:07:08;5.43;;;3.50;;
4521;SDS011;2273;48.464;11.926;2023-04-03T16:09:34;4.90;;;3.40;;
4521;SDS011;2273;48.464;11.926;2023-04-03T16:12:00;6.23;;;3.73;;
4521;SDS011;2273;48.464;11.926;2023-04-03T16:14:27;5.80;;;3.33;;
4521;SDS011;2273;48.464;11.926;2023-04-03T16:16:53;5.97;;;3.63;;
4521;SDS011;2273;48.464;11.926;2023-04-03T16:19:18;6.37;;;3.70;;
4521;SDS011;2273;48.464;11.926;2023-04-03T16:21:44;5.53;;;4.37;;
4521;SDS011;2273;48.464;11.926;2023-04-03T16:24:09;4.03;;;3.30;;
4521;SDS011;2273;48.464;11.926;2023-04-03T16:26:35;5.40;;;3.00;;
4521;SDS011;2273;48.464;11.926;2023-04-03T16:29:00;6.30;;;3.43;;
4521;SDS011;2273;48.464;11.926;2023-04-03T16:31:26;6.43;;;3.33;;
4521;SDS011;2273;48.464;11.926;2023-04-03T16:33:52;8.53;;;3.63;;